Time;durP1;ratioP1;P1;durP2;ratioP2;P2;SDS_P1;SDS_P2;PMS_P1;PMS_P2;Temp;Humidity;BMP_temperature;BMP_pressure;BME280_temperature;BME280_humidity;BME280_pressure;Samples;Min_cycle;Max_cycle;Signal;HPM_P1;HPM_P2
2023/07/11 00:02:18;;;;;;;14.40;13.30;;;22.70;98.10;;;;;;5051196;28;20486;-74
2023/07/11 00:04:45;;;;;;;13.17;12.57;;;22.70;98.30;;;;;;5053298;28;20980;-74
2023/07/11 00:07:11;;;;;;;15.53;14.70;;;22.60;98.60;;;;;;5053315;28;20479;-76
2023/07/11 00:09:38;;;;;;;15.20;14.40;;;22.60;98.80;;;;;;5053461;28;20447;-76
2023/07/11 00:12:07;;;;;;;13.77;13.07;;;22.60;99.00;;;;;;5053602;28;20444;-76
2023/07/11 00:14:36;;;;;;;13.10;12.23;;;22.50;99.30;;;;;;5053423;28;20452;-74
2023/07/11 00:17:04;;;;;;;14.73;13.90;;;22.50;99.80;;;;;;5053532;28;20464;-76
2023/07/11 00:19:31;;;;;;;15.03;14.23;;;22.40;99.90;;;;;;5053410;28;20460;-75
2023/07/11 00:21:58;;;;;;;14.40;13.60;;;22.30;99.90;;;;;;5053479;28;20909;-75
2023/07/11 00:24:24;;;;;;;15.37;14.47;;;22.30;99.90;;;;;;5053173;28;20452;-75
2023/07/11 00:26:51;;;;;;;12.67;12.07;;;22.30;99.90;;;;;;5053209;28;20452;-75
2023/07/11 00:29:22;;;;;;;12.30;11.63;;;22.20;99.90;;;;;;5053211;28;20456;-75
2023/07/11 00:31:48;;;;;;;13.27;12.10;;;22.20;99.90;;;;;;5053171;28;20462;-75
2023/07/11 00:34:15;;;;;;;20.03;12.93;;;22.10;99.90;;;;;;5052923;28;20455;-75
2023/07/11 00:36:41;;;;;;;14.63;13.90;;;22.20;99.90;;;;;;5052891;28;20878;-75
2023/07/11 00:39:09;;;;;;;15.20;14.30;;;22.10;99.90;;;;;;5052874;28;20824;-73
2023/07/11 00:41:36;;;;;;;15.57;14.70;;;22.00;99.90;;;;;;5052938;28;20483;-73
2023/07/11 00:44:03;;;;;;;15.53;14.37;;;22.10;99.90;;;;;;5052902;28;20444;-73
2023/07/11 00:46:31;;;;;;;14.60;13.80;;;22.00;99.90;;;;;;5052751;28;20456;-73
2023/07/11 00:49:00;;;;;;;14.50;13.80;;;22.00;99.90;;;;;;5053150;28;20459;-74
2023/07/11 00:51:31;;;;;;;13.93;13.13;;;22.00;99.90;;;;;;5052731;28;20452;-74
2023/07/11 00:54:00;;;;;;;14.97;14.17;;;21.90;99.90;;;;;;5052676;28;20456;-74
2023/07/11 00:56:30;;;;;;;14.57;13.87;;;21.90;99.90;;;;;;5052607;28;20471;-74
2023/07/11 00:58:58;;;;;;;13.90;13.10;;;21.90;99.90;;;;;;5052378;28;21012;-74
2023/07/11 01:01:26;;;;;;;14.17;13.37;;;21.90;99.90;;;;;;5052325;28;20576;-74
2023/07/11 01:03:55;;;;;;;14.47;13.77;;;21.80;99.90;;;;;;5052589;28;20566;-72
2023/07/11 01:06:25;;;;;;;15.13;14.33;;;21.70;99.90;;;;;;5052439;28;20547;-75
2023/07/11 01:08:54;;;;;;;15.73;14.83;;;21.70;99.90;;;;;;5052509;28;20451;-75
2023/07/11 01:11:22;;;;;;;15.27;14.37;;;21.60;99.90;;;;;;5052361;28;20452;-76
2023/07/11 01:13:49;;;;;;;16.43;15.30;;;21.50;99.90;;;;;;5052425;28;20961;-75
2023/07/11 01:16:16;;;;;;;14.80;13.90;;;21.50;99.90;;;;;;5052204;28;20459;-75
2023/07/11 01:18:43;;;;;;;14.30;13.57;;;21.50;99.90;;;;;;5052098;28;20447;-75
2023/07/11 01:21:15;;;;;;;14.87;13.97;;;21.40;99.90;;;;;;5051984;28;20487;-75
2023/07/11 01:23:42;;;;;;;15.00;14.30;;;21.40;99.90;;;;;;5051938;28;20467;-75
2023/07/11 01:26:10;;;;;;;14.13;13.33;;;21.50;99.90;;;;;;5051863;28;20969;-75
2023/07/11 01:28:37;;;;;;;14.60;13.90;;;21.40;99.90;;;;;;5051380;28;20817;-75
2023/07/11 01:31:04;;;;;;;14.40;13.50;;;21.40;99.90;;;;;;5052193;28;20506;-75
2023/07/11 01:33:31;;;;;;;14.53;13.63;;;21.40;99.90;;;;;;5051700;28;20948;-75
2023/07/11 01:35:58;;;;;;;13.93;13.13;;;21.40;99.90;;;;;;5051629;28;20495;-75
2023/07/11 01:38:26;;;;;;;15.23;14.17;;;21.30;99.90;;;;;;5051735;28;20448;-75
2023/07/11 01:40:53;;;;;;;15.23;14.47;;;21.30;99.90;;;;;;5051561;28;21012;-75
2023/07/11 01:43:21;;;;;;;15.43;14.63;;;21.20;99.90;;;;;;5051844;28;20467;-75
2023/07/11 01:45:48;;;;;;;15.90;15.00;;;21.10;99.90;;;;;;5051549;28;20444;-75
2023/07/11 01:48:15;;;;;;;14.10;13.40;;;21.10;99.90;;;;;;5051563;28;20444;-76
2023/07/11 01:50:42;;;;;;;16.00;15.10;;;21.10;99.90;;;;;;5051597;28;20452;-75
2023/07/11 01:53:08;;;;;;;15.43;14.73;;;21.10;99.90;;;;;;5051410;28;20517;-75
2023/07/11 01:55:37;;;;;;;15.47;14.57;;;21.00;99.90;;;;;;5051559;28;20452;-75
2023/07/11 01:58:04;;;;;;;15.83;14.87;;;21.10;99.90;;;;;;5051539;28;20459;-74
2023/07/11 02:00:30;;;;;;;16.37;15.47;;;21.00;99.90;;;;;;5051091;28;20484;-75
2023/07/11 02:02:57;;;;;;;16.73;15.63;;;21.00;99.90;;;;;;5051364;28;20448;-74
2023/07/11 02:05:24;;;;;;;14.90;13.90;;;21.10;99.90;;;;;;5051285;28;20456;-74
2023/07/11 02:07:51;;;;;;;15.77;14.47;;;21.00;99.90;;;;;;5051256;28;20990;-74
2023/07/11 02:10:17;;;;;;;13.50;12.80;;;21.00;99.90;;;;;;5051102;28;20447;-74
2023/07/11 02:12:45;;;;;;;13.63;12.93;;;20.90;99.90;;;;;;5051242;28;20459;-74
2023/07/11 02:15:12;;;;;;;16.40;15.60;;;21.00;99.90;;;;;;5051113;28;20938;-74
2023/07/11 02:17:39;;;;;;;16.17;15.20;;;20.90;99.90;;;;;;5051044;28;20517;-74
2023/07/11 02:20:07;;;;;;;14.90;14.10;;;20.90;99.90;;;;;;5051202;28;20522;-74
2023/07/11 02:22:34;;;;;;;15.50;14.70;;;20.80;99.90;;;;;;5051140;28;20455;-74
2023/07/11 02:25:01;;;;;;;15.80;14.90;;;20.80;99.90;;;;;;5050973;28;20455;-74
2023/07/11 02:27:27;;;;;;;15.77;14.97;;;20.80;99.90;;;;;;5050992;28;20705;-74
2023/07/11 02:29:56;;;;;;;16.50;15.80;;;20.70;99.90;;;;;;5050663;28;20456;-73
2023/07/11 02:32:22;;;;;;;15.30;14.50;;;20.60;99.90;;;;;;5050826;28;20448;-73
2023/07/11 02:34:49;;;;;;;15.70;14.80;;;20.60;99.90;;;;;;5050748;28;20452;-74
2023/07/11 02:37:16;;;;;;;14.83;13.93;;;20.60;99.90;;;;;;5050990;28;20459;-74
2023/07/11 02:39:42;;;;;;;16.77;16.00;;;20.60;99.90;;;;;;5050567;28;20816;-73
2023/07/11 02:42:09;;;;;;;16.77;15.80;;;20.60;99.90;;;;;;5049758;28;20480;-74
2023/07/11 02:44:36;;;;;;;16.57;15.50;;;20.60;99.90;;;;;;5050681;28;20451;-74
2023/07/11 02:47:05;;;;;;;15.87;15.13;;;20.50;99.90;;;;;;5050776;28;20476;-74
2023/07/11 02:49:31;;;;;;;14.40;13.67;;;20.50;99.90;;;;;;5050846;28;20452;-73
2023/07/11 02:51:58;;;;;;;15.37;14.37;;;20.50;99.90;;;;;;5050655;28;20590;-74
2023/07/11 02:54:25;;;;;;;14.50;13.80;;;20.40;99.90;;;;;;5050581;28;20452;-73
2023/07/11 02:56:52;;;;;;;15.73;14.80;;;20.30;99.90;;;;;;5050634;28;20444;-73
2023/07/11 02:59:18;;;;;;;15.50;14.80;;;20.30;99.90;;;;;;5050612;28;21036;-73
2023/07/11 03:01:45;;;;;;;17.57;16.53;;;20.30;99.90;;;;;;5050416;28;20506;-73
2023/07/11 03:04:13;;;;;;;17.60;16.50;;;20.30;99.90;;;;;;5050489;28;20497;-73
2023/07/11 03:06:40;;;;;;;15.80;14.80;;;20.30;99.90;;;;;;5050418;28;20487;-74
2023/07/11 03:09:07;;;;;;;17.00;16.00;;;20.40;99.90;;;;;;5050537;28;20459;-74
2023/07/11 03:11:33;;;;;;;16.03;14.97;;;20.40;99.90;;;;;;5050557;28;20448;-74
2023/07/11 03:14:00;;;;;;;15.77;15.00;;;20.30;99.90;;;;;;5050342;28;20938;-74
2023/07/11 03:16:27;;;;;;;16.20;15.20;;;20.30;99.90;;;;;;5050287;28;20821;-74
2023/07/11 03:18:53;;;;;;;15.80;15.00;;;20.30;99.90;;;;;;5050308;28;20447;-75
2023/07/11 03:21:21;;;;;;;16.83;15.90;;;20.30;99.90;;;;;;5050587;28;20498;-74
2023/07/11 03:23:48;;;;;;;17.30;16.50;;;20.20;99.90;;;;;;5050470;28;20447;-74
2023/07/11 03:26:15;;;;;;;15.83;15.13;;;20.20;99.90;;;;;;5050215;28;20513;-74
2023/07/11 03:28:42;;;;;;;16.17;15.43;;;20.20;99.90;;;;;;5050306;28;20458;-73
2023/07/11 03:31:09;;;;;;;15.70;15.00;;;20.10;99.90;;;;;;5050409;28;20629;-73
2023/07/11 03:33:36;;;;;;;15.73;14.80;;;20.10;99.90;;;;;;5050366;28;20459;-73
2023/07/11 03:36:03;;;;;;;17.17;16.27;;;20.00;99.90;;;;;;5050257;28;20475;-74
2023/07/11 03:38:31;;;;;;;17.27;16.20;;;20.10;99.90;;;;;;5050214;28;20455;-74
2023/07/11 03:40:58;;;;;;;16.63;15.87;;;20.00;99.90;;;;;;5050069;28;20490;-74
2023/07/11 03:43:25;;;;;;;16.40;15.50;;;20.00;99.90;;;;;;5050097;28;20460;-74
2023/07/11 03:45:51;;;;;;;16.53;15.73;;;20.00;99.90;;;;;;5050147;28;20456;-75
2023/07/11 03:48:19;;;;;;;15.67;14.97;;;20.00;99.90;;;;;;5050443;28;20865;-74
2023/07/11 03:50:45;;;;;;;15.90;15.10;;;19.90;99.90;;;;;;5050121;28;20444;-74
2023/07/11 03:53:13;;;;;;;16.77;15.90;;;19.90;99.90;;;;;;5052543;28;20459;-74
2023/07/11 03:55:42;;;;;;;17.00;16.10;;;19.90;99.90;;;;;;5053557;28;20447;-74
2023/07/11 03:58:09;;;;;;;17.33;16.33;;;20.00;99.90;;;;;;5053667;28;20498;-74
2023/07/11 04:00:36;;;;;;;16.97;16.07;;;20.00;99.90;;;;;;5053717;28;20538;-73
2023/07/11 04:03:03;;;;;;;16.77;15.90;;;20.00;99.90;;;;;;5053749;28;20459;-75
2023/07/11 04:05:30;;;;;;;16.50;15.60;;;20.00;99.90;;;;;;5053498;28;20451;-75
2023/07/11 04:07:57;;;;;;;16.47;15.57;;;20.00;99.90;;;;;;5053434;28;20480;-74
2023/07/11 04:10:24;;;;;;;17.10;16.10;;;20.00;99.90;;;;;;5052830;28;20541;-75
2023/07/11 04:12:52;;;;;;;16.27;15.40;;;20.10;99.90;;;;;;5052425;28;20460;-75
2023/07/11 04:15:18;;;;;;;16.87;15.90;;;20.10;99.90;;;;;;5052734;28;20517;-75
2023/07/11 04:17:45;;;;;;;17.67;16.80;;;20.10;99.90;;;;;;5053342;28;20455;-76
2023/07/11 04:20:13;;;;;;;17.20;16.17;;;20.10;99.90;;;;;;5053295;28;20459;-76
2023/07/11 04:22:39;;;;;;;15.93;15.03;;;20.20;99.90;;;;;;5052537;28;20492;-76
2023/07/11 04:25:07;;;;;;;16.80;15.80;;;20.20;99.90;;;;;;5052123;28;20463;-76
2023/07/11 04:27:34;;;;;;;16.37;15.47;;;20.20;99.90;;;;;;5052300;28;20467;-74
2023/07/11 04:30:02;;;;;;;15.43;14.43;;;20.30;99.90;;;;;;5052502;28;20457;-74
2023/07/11 04:32:29;;;;;;;16.30;15.50;;;20.40;99.90;;;;;;5052417;28;20460;-76
2023/07/11 04:34:56;;;;;;;17.00;16.00;;;20.40;99.90;;;;;;5052490;28;20502;-75
2023/07/11 04:37:22;;;;;;;18.43;17.27;;;20.50;99.90;;;;;;5052121;28;20451;-73
2023/07/11 04:39:49;;;;;;;15.50;14.60;;;20.70;99.90;;;;;;5052878;28;20806;-73
2023/07/11 04:42:16;;;;;;;16.37;15.17;;;21.00;99.90;;;;;;5052921;28;20480;-74
2023/07/11 04:44:42;;;;;;;15.83;15.13;;;21.30;99.90;;;;;;5052736;28;20513;-75
2023/07/11 04:47:11;;;;;;;15.63;14.80;;;21.60;99.90;;;;;;5052773;28;20463;-75
2023/07/11 04:49:38;;;;;;;17.40;16.00;;;22.10;99.90;;;;;;5052835;28;20514;-75
2023/07/11 04:52:05;;;;;;;17.73;16.63;;;22.40;99.90;;;;;;5053054;28;20452;-78
2023/07/11 04:54:31;;;;;;;16.10;14.90;;;22.40;99.90;;;;;;5052242;28;20483;-74
2023/07/11 04:56:59;;;;;;;16.50;15.50;;;22.60;99.90;;;;;;5051487;28;20467;-75
2023/07/11 04:59:27;;;;;;;15.97;15.00;;;22.70;99.90;;;;;;5052040;28;20452;-73
2023/07/11 05:01:53;;;;;;;17.90;16.80;;;22.90;99.90;;;;;;5046271;28;20488;-75
2023/07/11 05:04:21;;;;;;;17.43;16.53;;;22.90;99.90;;;;;;5050810;28;20993;-75
2023/07/11 05:06:48;;;;;;;16.83;15.97;;;22.90;99.90;;;;;;5051905;28;20490;-74
2023/07/11 05:09:15;;;;;;;16.43;15.30;;;23.00;99.90;;;;;;5052241;28;20495;-75
2023/07/11 05:11:43;;;;;;;16.90;16.00;;;23.00;99.90;;;;;;5051675;28;20456;-75
2023/07/11 05:14:10;;;;;;;17.00;15.90;;;23.00;99.90;;;;;;5051487;28;20483;-75
2023/07/11 05:16:37;;;;;;;16.30;15.40;;;23.00;99.90;;;;;;5051589;28;20463;-72
2023/07/11 05:19:04;;;;;;;15.60;14.70;;;23.10;99.90;;;;;;5051908;28;20452;-73
2023/07/11 05:21:32;;;;;;;17.40;16.40;;;23.30;99.90;;;;;;5052030;28;20487;-72
2023/07/11 05:24:01;;;;;;;15.93;15.13;;;23.40;99.90;;;;;;5052141;28;20510;-74
2023/07/11 05:26:28;;;;;;;16.40;15.60;;;23.60;99.90;;;;;;5051913;28;21168;-73
2023/07/11 05:28:54;;;;;;;16.13;15.23;;;23.90;99.90;;;;;;5051956;28;20456;-74
2023/07/11 05:31:21;;;;;;;15.60;14.83;;;24.00;99.90;;;;;;5052131;28;20444;-73
2023/07/11 05:33:48;;;;;;;16.83;15.67;;;24.20;99.90;;;;;;5052188;28;20446;-74
2023/07/11 05:36:25;;;;;;;16.13;15.33;;;24.20;99.90;;;;;;5051700;28;20468;-73
2023/07/11 05:38:54;;;;;;;14.73;13.93;;;24.30;99.90;;;;;;5051150;28;20460;-74
2023/07/11 05:41:21;;;;;;;14.63;13.93;;;24.30;99.90;;;;;;5050432;28;20487;-74
2023/07/11 05:43:48;;;;;;;14.43;13.40;;;24.40;99.90;;;;;;5048844;28;20444;-73
2023/07/11 05:46:16;;;;;;;14.03;13.20;;;24.50;99.90;;;;;;5051151;28;20463;-76
2023/07/11 05:48:43;;;;;;;13.38;12.65;;;24.70;99.90;;;;;;5050261;28;20426;-79
2023/07/11 05:51:11;;;;;;;16.20;15.30;;;24.90;99.90;;;;;;5051136;28;20205;-75
2023/07/11 05:53:38;;;;;;;15.03;14.10;;;25.00;99.90;;;;;;5051459;28;20455;-76
2023/07/11 05:56:07;;;;;;;16.07;15.27;;;25.00;99.90;;;;;;5051487;28;20930;-74
2023/07/11 05:58:35;;;;;;;15.00;14.20;;;25.10;99.90;;;;;;5051324;28;20945;-76
2023/07/11 06:01:02;;;;;;;14.97;14.27;;;25.40;99.80;;;;;;5051210;28;20444;-75
2023/07/11 06:03:31;;;;;;;16.80;15.60;;;25.60;99.20;;;;;;5051262;28;20451;-74
2023/07/11 06:06:01;;;;;;;17.00;16.10;;;25.80;99.00;;;;;;5045773;28;20499;-73
2023/07/11 06:08:56;;;;;;;15.10;14.20;;;26.20;97.90;;;;;;5051277;28;20508;-73
2023/07/11 06:11:24;;;;;;;16.80;15.90;;;26.60;96.50;;;;;;5045483;28;20456;-74
2023/07/11 06:13:50;;;;;;;16.13;15.33;;;26.50;96.50;;;;;;5050272;28;20452;-74
2023/07/11 06:16:43;;;;;;;15.77;14.53;;;26.60;96.20;;;;;;5050510;28;20448;-73
2023/07/11 06:19:10;;;;;;;15.63;14.93;;;27.00;95.50;;;;;;5050611;28;20803;-73
2023/07/11 06:21:37;;;;;;;16.00;15.00;;;26.90;95.50;;;;;;5052411;28;20491;-83
2023/07/11 06:24:04;;;;;;;14.80;14.10;;;26.70;95.20;;;;;;5050394;28;20451;-83
2023/07/11 06:26:32;;;;;;;15.03;14.33;;;26.30;95.90;;;;;;5050946;28;20459;-83
2023/07/11 06:28:58;;;;;;;15.13;14.37;;;26.30;96.30;;;;;;5050782;28;20816;-82
2023/07/11 06:31:26;;;;;;;15.00;13.60;;;26.40;96.30;;;;;;5051258;28;20938;-83
2023/07/11 06:33:52;;;;;;;14.63;13.80;;;26.50;96.00;;;;;;5051051;28;20451;-83
2023/07/11 06:36:19;;;;;;;15.47;14.73;;;26.40;96.10;;;;;;5050939;28;20479;-83
2023/07/11 06:38:46;;;;;;;15.90;14.90;;;26.20;96.20;;;;;;5050786;28;20447;-82
2023/07/11 06:41:12;;;;;;;14.93;14.23;;;26.20;96.60;;;;;;5051322;28;20447;-82
2023/07/11 06:43:41;;;;;;;14.67;13.87;;;26.50;96.50;;;;;;5050535;28;20443;-82
2023/07/11 06:46:07;;;;;;;16.83;15.83;;;26.80;95.80;;;;;;5050864;28;20954;-84
2023/07/11 06:48:34;;;;;;;15.40;14.50;;;26.80;95.60;;;;;;5050734;28;20702;-85
2023/07/11 06:51:03;;;;;;;14.93;13.83;;;26.80;95.30;;;;;;5050233;28;20514;-84
2023/07/11 06:53:31;;;;;;;15.30;14.50;;;26.90;95.20;;;;;;5050988;28;20459;-82
2023/07/11 06:55:58;;;;;;;16.90;15.90;;;26.90;95.20;;;;;;5050355;28;20455;-84
2023/07/11 06:58:26;;;;;;;16.93;16.13;;;26.90;95.30;;;;;;5049928;28;20763;-83
2023/07/11 07:00:57;;;;;;;17.03;15.73;;;27.00;95.20;;;;;;5050550;28;20444;-81
2023/07/11 07:03:24;;;;;;;16.60;15.70;;;27.00;94.80;;;;;;5049919;28;20844;-83
2023/07/11 07:05:52;;;;;;;16.17;15.33;;;27.20;94.70;;;;;;5049696;28;20452;-83
2023/07/11 07:08:21;;;;;;;16.13;15.17;;;27.50;93.90;;;;;;5050242;28;20868;-83
2023/07/11 07:10:48;;;;;;;15.13;14.40;;;27.60;97.80;;;;;;5050307;28;20448;-82
2023/07/11 07:13:15;;;;;;;15.67;14.97;;;27.50;93.70;;;;;;5048372;28;20448;-81
2023/07/11 07:15:42;;;;;;;14.77;14.00;;;27.80;93.50;;;;;;5047464;28;20479;-83
2023/07/11 07:18:10;;;;;;;15.03;14.40;;;28.00;92.50;;;;;;5050726;28;20523;-83
2023/07/11 07:20:37;;;;;;;17.10;16.20;;;28.40;91.80;;;;;;5051993;28;20452;-84
2023/07/11 07:23:05;;;;;;;14.83;14.13;;;29.00;91.20;;;;;;5053508;28;20542;-85
2023/07/11 07:25:32;;;;;;;17.50;16.13;;;30.20;88.00;;;;;;5052405;28;20976;-84
2023/07/11 07:27:58;;;;;;;16.50;15.60;;;31.40;83.70;;;;;;5053470;28;20455;-83
2023/07/11 07:30:25;;;;;;;16.77;15.80;;;32.40;79.80;;;;;;5054848;28;20789;-83
2023/07/11 07:32:52;;;;;;;16.67;15.67;;;33.20;75.80;;;;;;5056775;28;20929;-84
2023/07/11 07:35:20;;;;;;;16.17;15.47;;;33.50;71.20;;;;;;5058232;28;20472;-84
2023/07/11 07:37:47;;;;;;;16.30;15.60;;;33.00;69.20;;;;;;5057803;28;20466;-85
2023/07/11 07:40:14;;;;;;;15.80;15.20;;;33.10;69.30;;;;;;5057872;28;20458;-85
2023/07/11 07:42:41;;;;;;;16.20;15.40;;;33.40;67.80;;;;;;5057482;28;20504;-85
2023/07/11 07:45:08;;;;;;;16.37;15.53;;;33.10;67.10;;;;;;5057657;28;20452;-81
2023/07/11 07:47:36;;;;;;;16.70;16.00;;;33.50;66.90;;;;;;5057476;28;20455;-87
2023/07/11 07:50:03;;;;;;;16.03;15.33;;;33.70;66.30;;;;;;5058417;28;20942;-86
2023/07/11 07:52:31;;;;;;;16.03;15.33;;;33.90;64.00;;;;;;5057006;28;20444;-85
2023/07/11 07:54:57;;;;;;;16.37;15.70;;;34.10;62.80;;;;;;5057806;28;20980;-85
2023/07/11 07:57:25;;;;;;;16.33;15.57;;;34.30;60.90;;;;;;5055825;28;20444;-85
2023/07/11 07:59:52;;;;;;;16.63;15.80;;;34.20;60.90;;;;;;5053929;28;20456;-85
2023/07/11 08:02:19;;;;;;;16.73;16.03;;;34.00;62.50;;;;;;5056003;28;20483;-84
2023/07/11 08:04:47;;;;;;;16.83;16.13;;;33.90;60.80;;;;;;5058903;28;20466;-85
2023/07/11 08:07:14;;;;;;;16.53;15.83;;;33.80;60.70;;;;;;5057948;28;20476;-84
2023/07/11 08:09:43;;;;;;;18.47;17.57;;;34.20;60.80;;;;;;5059183;28;20452;-84
2023/07/11 08:12:11;;;;;;;17.73;17.03;;;34.50;60.40;;;;;;5060141;28;20452;-86
2023/07/11 08:14:40;;;;;;;16.00;15.40;;;34.10;60.90;;;;;;5059773;28;20799;-85
2023/07/11 08:17:07;;;;;;;16.23;15.43;;;34.40;59.80;;;;;;5060498;28;20457;-87
2023/07/11 08:19:34;;;;;;;17.27;16.57;;;34.40;59.70;;;;;;5060963;28;20456;-87
2023/07/11 08:22:01;;;;;;;18.17;17.37;;;;;;;;;;5053745;28;20464;-87
2023/07/11 08:24:28;;;;;;;16.70;16.00;;;34.70;59.00;;;;;;5048697;28;20978;-84
2023/07/11 08:26:56;;;;;;;18.33;17.33;;;35.00;59.00;;;;;;5053346;28;20451;-86
2023/07/11 08:29:23;;;;;;;17.93;17.23;;;35.10;58.50;;;;;;5053850;28;20480;-86
2023/07/11 08:31:50;;;;;;;17.60;16.90;;;35.60;57.40;;;;;;5054260;28;20781;-85
2023/07/11 08:34:17;;;;;;;17.70;17.00;;;35.60;57.50;;;;;;5053861;28;20958;-87
2023/07/11 08:36:46;;;;;;;17.70;16.90;;;35.50;57.80;;;;;;5053449;28;20487;-87
2023/07/11 08:39:13;;;;;;;19.20;18.30;;;35.50;58.00;;;;;;5054950;28;20491;-86
2023/07/11 08:41:44;;;;;;;17.13;16.43;;;35.30;57.60;;;;;;5053265;28;20484;-85
2023/07/11 08:44:17;;;;;;;19.00;18.13;;;35.50;57.20;;;;;;5053324;28;20541;-85
2023/07/11 08:46:53;;;;;;;18.40;17.50;;;35.70;57.00;;;;;;5052674;28;20439;-84
2023/07/11 08:49:25;;;;;;;18.70;17.93;;;36.20;56.20;;;;;;5053551;28;20475;-86
2023/07/11 08:51:54;;;;;;;20.30;19.50;;;36.40;55.90;;;;;;5060135;28;20460;-86
2023/07/11 08:54:28;;;;;;;18.33;17.50;;;36.30;55.90;;;;;;5057591;28;20877;-84
2023/07/11 08:56:56;;;;;;;18.83;17.93;;;36.70;55.40;;;;;;5053410;28;20485;-85
2023/07/11 08:59:30;;;;;;;18.27;17.57;;;36.80;55.10;;;;;;5058175;28;20463;-85
2023/07/11 09:02:06;;;;;;;18.33;17.50;;;36.60;55.40;;;;;;5061116;28;20539;-85
2023/07/11 09:04:34;;;;;;;18.23;17.50;;;36.40;55.90;;;;;;5064180;28;20447;-84
2023/07/11 09:07:06;;;;;;;18.03;17.13;;;36.50;55.60;;;;;;5061194;28;20569;-86
2023/07/11 09:09:33;;;;;;;19.37;18.47;;;36.80;55.60;;;;;;5061812;28;20460;-87
2023/07/11 09:12:08;;;;;;;18.40;17.50;;;37.30;55.20;;;;;;5063200;28;20452;-83
2023/07/11 09:15:01;;;;;;;18.80;17.90;;;37.40;54.80;;;;;;5047341;28;20463;-91
2023/07/11 09:17:47;;;;;;;18.07;17.17;;;37.40;54.30;;;;;;5042914;28;20564;-90
2023/07/11 09:20:26;;;;;;;18.13;17.03;;;37.20;55.00;;;;;;5056286;28;20466;-91
2023/07/11 09:23:01;;;;;;;19.33;18.53;;;37.00;55.40;;;;;;5063450;28;20472;-90
2023/07/11 09:25:35;;;;;;;19.17;18.17;;;37.10;56.10;;;;;;5059142;28;20824;-92
2023/07/11 09:28:07;;;;;;;18.60;17.60;;;37.20;55.90;;;;;;5064162;28;20452;-90
2023/07/11 09:30:50;;;;;;;19.10;18.20;;;37.30;56.20;;;;;;5065803;28;20452;-90
2023/07/11 09:33:22;;;;;;;18.17;17.27;;;37.40;56.10;;;;;;5064653;28;20935;-91
2023/07/11 09:35:51;;;;;;;19.17;18.17;;;37.50;56.20;;;;;;5062150;28;20483;-90
2023/07/11 09:38:25;;;;;;;20.07;19.17;;;37.40;56.50;;;;;;5062972;28;20566;-87
2023/07/11 09:40:57;;;;;;;19.77;18.77;;;37.20;56.40;;;;;;5063569;28;20460;-87
2023/07/11 09:43:25;;;;;;;18.33;17.53;;;37.20;55.90;;;;;;5065993;28;20494;-88
2023/07/11 09:45:53;;;;;;;18.53;17.60;;;37.70;54.70;;;;;;5070925;28;20452;-88
2023/07/11 09:48:26;;;;;;;19.80;18.90;;;38.30;53.70;;;;;;5054837;28;20953;-90
2023/07/11 09:51:17;;;;;;;19.30;18.30;;;38.90;52.50;;;;;;5058497;28;20440;-87
2023/07/11 09:53:45;;;;;;;18.83;17.97;;;38.30;53.30;;;;;;5055504;28;20448;-88
2023/07/11 09:56:13;;;;;;;19.13;18.30;;;38.40;53.60;;;;;;5055638;28;20460;-87
2023/07/11 09:58:40;;;;;;;19.93;19.07;;;38.90;53.00;;;;;;5060864;28;20523;-88
2023/07/11 10:01:18;;;;;;;19.70;18.90;;;39.20;52.90;;;;;;5063660;28;20444;-88
2023/07/11 10:03:47;;;;;;;19.83;18.90;;;39.00;52.90;;;;;;5057991;28;20550;-88
2023/07/11 10:06:30;;;;;;;19.00;18.17;;;39.00;52.80;;;;;;5056813;28;20801;-89
2023/07/11 10:08:59;;;;;;;20.57;19.77;;;39.10;52.90;;;;;;5060947;28;20447;-90
2023/07/11 10:11:26;;;;;;;18.50;17.67;;;39.50;52.20;;;;;;5058264;28;20440;-89
2023/07/11 10:13:56;;;;;;;19.63;18.73;;;39.50;51.70;;;;;;5056811;28;20451;-89
2023/07/11 10:16:25;;;;;;;19.67;18.80;;;39.80;51.30;;;;;;5061066;28;20511;-89
2023/07/11 10:18:58;;;;;;;19.70;18.80;;;39.80;50.70;;;;;;5062296;28;20520;-91
2023/07/11 10:21:27;;;;;;;21.77;20.87;;;40.50;49.80;;;;;;5059334;28;20463;-89
2023/07/11 10:23:55;;;;;;;20.73;19.87;;;40.40;49.10;;;;;;5057365;28;20499;-88
2023/07/11 10:26:24;;;;;;;19.47;18.57;;;40.00;50.10;;;;;;5059025;28;20462;-89
2023/07/11 10:28:58;;;;;;;19.77;18.67;;;39.10;51.10;;;;;;5060759;28;20519;-91
2023/07/11 10:31:32;;;;;;;19.13;18.03;;;39.20;51.10;;;;;;5059644;28;20466;-87
2023/07/11 10:34:04;;;;;;;20.37;19.37;;;39.80;50.50;;;;;;5058405;28;20454;-91
2023/07/11 10:36:36;;;;;;;19.40;18.43;;;39.50;50.50;;;;;;5057662;28;20920;-91
2023/07/11 10:39:08;;;;;;;18.63;17.83;;;39.80;49.60;;;;;;5057452;28;20454;-88
2023/07/11 10:41:40;;;;;;;20.63;19.73;;;40.00;49.10;;;;;;5057546;28;20460;-90
2023/07/11 10:44:14;;;;;;;19.90;19.00;;;40.90;48.10;;;;;;5057678;28;20479;-92
2023/07/11 10:46:48;;;;;;;19.40;18.60;;;41.30;47.20;;;;;;5057113;28;20755;-89
2023/07/11 10:49:18;;;;;;;19.63;18.90;;;41.30;46.50;;;;;;5057804;28;20818;-91
2023/07/11 10:51:53;;;;;;;18.00;17.20;;;40.90;46.90;;;;;;5055892;28;20462;-88
2023/07/11 10:54:25;;;;;;;20.17;19.37;;;41.20;46.70;;;;;;5054550;28;20451;-88
2023/07/11 10:56:58;;;;;;;21.70;20.70;;;41.50;45.90;;;;;;5053126;28;20467;-92
2023/07/11 10:59:32;;;;;;;20.17;19.20;;;42.30;45.10;;;;;;5053397;28;20982;-90
2023/07/11 11:02:06;;;;;;;19.20;18.40;;;43.00;46.30;;;;;;5054161;28;20520;-90
2023/07/11 11:04:49;;;;;;;21.50;20.60;;;43.00;44.80;;;;;;5056002;28;21085;-91
2023/07/11 11:07:22;;;;;;;21.83;20.83;;;43.30;44.30;;;;;;5057944;28;20233;-90
2023/07/11 11:10:01;;;;;;;20.50;19.70;;;43.50;43.90;;;;;;5059266;28;20299;-90
2023/07/11 11:12:39;;;;;;;21.53;20.63;;;44.30;44.10;;;;;;5058905;28;20197;-92
2023/07/11 11:15:32;;;;;;;21.10;19.90;;;43.80;43.60;;;;;;5060179;28;20204;-91
2023/07/11 11:18:21;;;;;;;21.50;20.67;;;44.00;42.90;;;;;;5065938;28;20258;-94
2023/07/11 11:21:00;;;;;;;20.60;19.73;;;44.70;43.00;;;;;;5064518;28;20689;-92
2023/07/11 11:23:37;;;;;;;21.45;20.35;;;45.20;42.60;;;;;;5060082;28;20220;-90
2023/07/11 11:26:18;;;;;;;20.87;19.97;;;45.10;42.30;;;;;;5051651;28;20268;-90
2023/07/11 11:28:53;;;;;;;22.13;21.13;;;43.90;43.40;;;;;;5059731;28;20292;-91
2023/07/11 11:31:24;;;;;;;20.93;20.13;;;44.10;43.50;;;;;;5059120;28;20275;-90
2023/07/11 11:34:07;;;;;;;19.90;19.10;;;44.10;43.30;;;;;;5054750;28;20212;-90
2023/07/11 11:36:46;;;;;;;21.60;20.50;;;44.30;43.00;;;;;;5056351;28;20228;-89
2023/07/11 11:39:24;;;;;;;21.30;20.30;;;43.70;42.90;;;;;;5054426;28;20201;-89
2023/07/11 11:41:56;;;;;;;20.40;19.53;;;43.40;44.00;;;;;;5055629;28;20208;-90
2023/07/11 11:44:32;;;;;;;22.08;21.17;;;44.00;43.60;;;;;;5044125;28;20317;-92
2023/07/11 11:46:59;;;;;;;21.77;20.77;;;44.50;42.40;;;;;;5046804;28;20231;-91
2023/07/11 11:49:28;;;;;;;22.50;21.50;;;42.80;43.80;;;;;;5055446;28;20205;-89
2023/07/11 11:51:56;;;;;;;21.00;20.10;;;43.20;43.70;;;;;;5058787;28;20466;-89
2023/07/11 11:54:25;;;;;;;21.20;20.30;;;43.90;43.30;;;;;;5055122;28;20667;-87
2023/07/11 11:56:58;;;;;;;21.10;20.10;;;44.10;42.50;;;;;;5054033;28;20235;-88
2023/07/11 11:59:27;;;;;;;21.80;20.70;;;43.00;42.70;;;;;;5053957;28;20561;-87
2023/07/11 12:02:10;;;;;;;20.70;19.90;;;42.00;44.30;;;;;;5054023;28;20491;-90
2023/07/11 12:05:01;;;;;;;21.40;20.50;;;42.10;44.30;;;;;;5054112;28;20481;-88
2023/07/11 12:07:31;;;;;;;22.40;21.40;;;42.60;44.00;;;;;;5053901;28;20835;-89
2023/07/11 12:10:12;;;;;;;20.17;19.20;;;42.80;43.50;;;;;;5054309;28;20447;-90
2023/07/11 12:13:07;;;;;;;21.20;20.23;;;42.80;43.70;;;;;;5056933;28;20459;-93
2023/07/11 12:15:38;;;;;;;21.10;20.17;;;43.10;43.30;;;;;;5056694;28;20494;-93
2023/07/11 12:18:41;;;;;;;21.00;20.20;;;43.60;43.00;;;;;;5054837;28;20486;-90
2023/07/11 12:21:40;;;;;;;21.20;20.20;;;42.90;42.70;;;;;;5053504;28;20207;-87
2023/07/11 12:24:59;;;;;;;20.63;19.73;;;41.20;44.70;;;;;;5053929;28;20491;-88
2023/07/11 12:28:00;;;;;;;21.37;20.43;;;40.70;46.10;;;;;;5055168;28;20451;-88
2023/07/11 12:30:43;;;;;;;20.10;19.10;;;42.50;44.10;;;;;;5053989;28;20753;-87
2023/07/11 12:33:33;;;;;;;20.30;19.50;;;42.50;42.20;;;;;;5053461;28;20941;-86
2023/07/11 12:36:33;;;;;;;20.00;19.10;;;41.90;43.10;;;;;;5054120;28;20566;-87
2023/07/11 12:39:11;;;;;;;19.20;18.50;;;42.00;42.70;;;;;;5044993;28;20465;-87
2023/07/11 12:41:44;;;;;;;20.67;19.70;;;42.60;42.30;;;;;;5055823;28;20458;-86
2023/07/11 12:44:14;;;;;;;21.23;20.13;;;43.20;42.00;;;;;;5055314;28;20540;-86